Time;durP1;ratioP1;P1;durP2;ratioP2;P2;SDS_P1;SDS_P2;PMS_P1;PMS_P2;Temp;Humidity;BMP_temperature;BMP_pressure;BME280_temperature;BME280_humidity;BME280_pressure;Samples;Min_cycle;Max_cycle;Signal;HPM_P1;HPM_P2
2023/04/23 00:00:48;;;;;;;6.70;3.78;;;13.50;99.90;;;;;;5003073;28;20038;-76
2023/04/23 00:03:16;;;;;;;6.05;3.70;;;13.50;99.90;;;;;;5004326;28;20046;-77
2023/04/23 00:05:43;;;;;;;6.70;3.57;;;13.50;99.90;;;;;;5004278;28;20034;-77
2023/04/23 00:08:10;;;;;;;4.43;3.60;;;13.40;99.90;;;;;;5004130;28;20042;-76
2023/04/23 00:10:36;;;;;;;4.53;3.60;;;13.30;99.90;;;;;;5003227;28;20110;-78
2023/04/23 00:13:03;;;;;;;4.80;3.85;;;13.40;99.90;;;;;;5006505;28;20038;-77
2023/04/23 00:15:29;;;;;;;5.32;3.83;;;13.30;99.90;;;;;;5004718;28;20040;-77
2023/04/23 00:17:55;;;;;;;5.03;3.80;;;13.30;99.90;;;;;;5005125;28;20093;-77
2023/04/23 00:20:21;;;;;;;4.38;3.58;;;13.30;99.90;;;;;;5004876;28;20046;-78
2023/04/23 00:22:47;;;;;;;4.40;3.50;;;13.30;99.90;;;;;;5003883;28;20058;-77
2023/04/23 00:25:13;;;;;;;4.70;3.70;;;13.30;99.90;;;;;;5003263;28;20034;-77
2023/04/23 00:27:38;;;;;;;4.78;3.17;;;13.30;99.90;;;;;;5003461;28;20094;-77
2023/04/23 00:30:05;;;;;;;5.05;3.25;;;13.00;99.90;;;;;;5002718;28;20027;-76
2023/04/23 00:32:31;;;;;;;4.63;3.30;;;12.70;99.90;;;;;;5002408;28;20042;-76
2023/04/23 00:34:57;;;;;;;4.45;3.22;;;12.70;99.90;;;;;;5002255;28;20065;-77
2023/04/23 00:37:22;;;;;;;5.57;3.17;;;12.80;99.90;;;;;;5002675;28;20082;-77
2023/04/23 00:39:48;;;;;;;4.80;3.40;;;12.80;99.90;;;;;;5001087;28;20034;-77
2023/04/23 00:42:16;;;;;;;4.15;3.40;;;12.90;99.90;;;;;;5001629;28;20487;-77
2023/04/23 00:44:42;;;;;;;4.53;3.00;;;12.80;99.90;;;;;;5001155;28;20070;-76
2023/04/23 00:47:08;;;;;;;4.30;2.92;;;12.50;99.90;;;;;;5001754;28;20309;-77
2023/04/23 00:49:35;;;;;;;4.07;2.95;;;12.30;99.90;;;;;;5001322;28;20034;-76
2023/04/23 00:52:02;;;;;;;3.45;3.15;;;12.40;99.90;;;;;;5002208;28;20073;-77
2023/04/23 00:54:27;;;;;;;3.58;2.90;;;12.50;99.90;;;;;;5002591;28;20078;-76
2023/04/23 00:56:54;;;;;;;3.67;3.20;;;12.50;99.90;;;;;;5002022;28;20049;-77
2023/04/23 00:59:20;;;;;;;2.85;2.65;;;12.60;99.90;;;;;;5003097;28;20042;-76
2023/04/23 01:01:47;;;;;;;4.32;3.08;;;12.60;99.90;;;;;;4997232;28;20380;-70
2023/04/23 01:04:16;;;;;;;3.47;2.85;;;12.60;99.90;;;;;;4995154;28;20023;-70
2023/04/23 01:06:43;;;;;;;3.67;3.00;;;12.60;99.90;;;;;;4995096;28;20114;-71
2023/04/23 01:09:09;;;;;;;5.35;3.15;;;12.70;99.90;;;;;;4995975;28;20038;-71
2023/04/23 01:11:38;;;;;;;6.93;3.60;;;12.80;99.90;;;;;;4994775;28;20463;-71
2023/04/23 01:14:05;;;;;;;5.07;3.90;;;12.80;99.90;;;;;;4994779;28;20081;-74
2023/04/23 01:16:31;;;;;;;6.63;3.45;;;12.80;99.90;;;;;;4994579;28;20113;-71
2023/04/23 01:18:57;;;;;;;4.55;3.25;;;12.90;99.90;;;;;;4995080;28;20113;-71
2023/04/23 01:21:24;;;;;;;4.05;3.38;;;12.80;99.90;;;;;;4996336;28;20055;-71
2023/04/23 01:23:50;;;;;;;6.45;3.38;;;12.80;99.90;;;;;;4998790;28;20101;-70
2023/04/23 01:26:17;;;;;;;4.93;3.33;;;12.80;99.90;;;;;;5001251;28;20077;-71
2023/04/23 01:28:44;;;;;;;4.53;3.00;;;12.80;99.90;;;;;;4998519;28;20431;-70
2023/04/23 01:31:13;;;;;;;4.25;3.20;;;12.60;99.90;;;;;;4997812;28;20038;-71
2023/04/23 01:33:39;;;;;;;;;;;12.60;99.90;;;;;;4997659;28;20093;-71
2023/04/23 01:36:05;;;;;;;2.80;2.60;;;12.40;99.90;;;;;;4999038;28;19909;-70
2023/04/23 01:38:32;;;;;;;3.67;2.70;;;12.40;99.90;;;;;;4998212;28;20513;-71
2023/04/23 01:40:58;;;;;;;3.47;2.95;;;12.40;99.90;;;;;;4998811;28;20034;-71
2023/04/23 01:43:24;;;;;;;4.03;3.10;;;12.30;99.90;;;;;;4998168;28;20038;-71
2023/04/23 01:45:50;;;;;;;5.63;3.35;;;12.20;99.90;;;;;;4998969;28;20069;-71
2023/04/23 01:48:16;;;;;;;5.50;3.28;;;12.20;99.90;;;;;;4998415;28;20059;-71
2023/04/23 01:50:42;;;;;;;5.55;3.85;;;12.10;99.90;;;;;;4998181;28;20038;-70
2023/04/23 01:53:08;;;;;;;4.68;3.22;;;12.10;99.90;;;;;;4998100;28;20081;-71
2023/04/23 01:55:37;;;;;;;4.18;3.30;;;12.10;99.90;;;;;;4999197;28;20026;-70
2023/04/23 01:58:02;;;;;;;3.80;3.42;;;12.10;99.90;;;;;;4998405;28;20071;-70
2023/04/23 02:00:28;;;;;;;4.65;3.22;;;12.20;99.90;;;;;;4997672;28;20070;-72
2023/04/23 02:02:54;;;;;;;5.00;3.15;;;12.20;99.90;;;;;;4999736;28;20029;-70
2023/04/23 02:05:20;;;;;;;6.05;3.58;;;12.30;99.90;;;;;;4999401;28;20110;-71
2023/04/23 02:07:48;;;;;;;5.15;3.72;;;12.30;99.90;;;;;;4997935;28;20475;-70
2023/04/23 02:10:14;;;;;;;3.38;2.90;;;12.30;99.90;;;;;;4998119;28;20390;-72
2023/04/23 02:12:40;;;;;;;3.70;3.10;;;12.20;99.90;;;;;;4996911;28;20033;-72
2023/04/23 02:15:08;;;;;;;5.90;3.40;;;12.20;99.90;;;;;;4997223;28;20031;-71
2023/04/23 02:17:34;;;;;;;3.40;3.08;;;12.30;99.90;;;;;;4998135;28;20030;-70
2023/04/23 02:20:00;;;;;;;5.47;3.47;;;12.30;99.90;;;;;;4997872;28;20096;-70
2023/04/23 02:22:27;;;;;;;4.82;3.15;;;12.10;99.90;;;;;;4997985;28;20030;-71
2023/04/23 02:24:53;;;;;;;3.70;3.40;;;12.10;99.90;;;;;;4997533;28;20023;-71
2023/04/23 02:27:20;;;;;;;6.10;3.70;;;12.20;99.90;;;;;;4998656;28;20049;-71
2023/04/23 02:29:48;;;;;;;4.60;3.70;;;12.20;99.90;;;;;;4998018;28;20034;-71
2023/04/23 02:32:14;;;;;;;4.13;3.67;;;12.30;99.90;;;;;;4996314;28;20129;-72
2023/04/23 02:34:39;;;;;;;4.78;3.63;;;12.30;99.90;;;;;;4997464;28;20427;-71
2023/04/23 02:37:06;;;;;;;6.10;3.92;;;12.30;99.90;;;;;;4998218;28;20553;-71
2023/04/23 02:39:31;;;;;;;4.13;3.75;;;12.30;99.90;;;;;;4997215;28;20165;-71
2023/04/23 02:41:57;;;;;;;4.05;3.63;;;12.30;99.90;;;;;;4997414;28;20077;-72
2023/04/23 02:44:24;;;;;;;6.03;3.80;;;12.30;99.90;;;;;;4997194;28;20056;-71
2023/04/23 02:46:50;;;;;;;4.32;3.88;;;12.40;99.90;;;;;;4997901;28;20030;-71
2023/04/23 02:49:16;;;;;;;6.30;3.60;;;12.40;99.90;;;;;;4998777;28;20030;-70
2023/04/23 02:51:42;;;;;;;4.68;3.78;;;12.40;99.90;;;;;;4998043;28;20038;-70
2023/04/23 02:54:07;;;;;;;3.55;3.25;;;12.30;99.90;;;;;;4997250;28;20135;-71
2023/04/23 02:56:33;;;;;;;4.68;3.83;;;12.30;99.90;;;;;;4997595;28;20023;-71
2023/04/23 02:59:00;;;;;;;5.15;3.97;;;12.20;99.90;;;;;;4998473;28;20027;-71
2023/04/23 03:01:25;;;;;;;4.93;3.72;;;12.20;99.90;;;;;;4998008;28;20038;-70
2023/04/23 03:03:51;;;;;;;5.82;3.70;;;12.20;99.90;;;;;;4997606;28;20101;-71
2023/04/23 03:06:18;;;;;;;4.15;3.75;;;12.10;99.90;;;;;;4996538;28;20038;-73
2023/04/23 03:08:43;;;;;;;4.20;3.33;;;12.10;99.90;;;;;;4995714;28;20034;-72
2023/04/23 03:11:09;;;;;;;4.68;4.15;;;12.10;99.90;;;;;;4996205;28;20054;-71
2023/04/23 03:13:34;;;;;;;4.03;3.60;;;12.10;99.90;;;;;;4996559;28;20038;-71
2023/04/23 03:16:00;;;;;;;5.35;4.00;;;12.00;99.90;;;;;;4996429;28;20032;-71
2023/04/23 03:18:25;;;;;;;5.05;3.45;;;12.00;99.90;;;;;;4996929;28;20435;-70
2023/04/23 03:20:51;;;;;;;5.82;3.90;;;12.10;99.90;;;;;;4996404;28;20505;-71
2023/04/23 03:23:17;;;;;;;4.07;3.65;;;12.00;99.90;;;;;;4982985;28;20096;-70
2023/04/23 03:25:42;;;;;;;6.07;4.30;;;12.00;99.90;;;;;;4996576;28;20030;-70
2023/04/23 03:28:08;;;;;;;6.68;4.10;;;12.00;99.90;;;;;;4996087;28;20084;-71
2023/04/23 03:30:33;;;;;;;4.95;3.80;;;12.00;99.90;;;;;;4995863;28;20069;-72
2023/04/23 03:33:01;;;;;;;4.93;4.50;;;12.00;99.90;;;;;;4996394;28;20101;-70
2023/04/23 03:35:26;;;;;;;7.13;4.30;;;12.00;99.90;;;;;;4999040;28;20077;-71
2023/04/23 03:37:52;;;;;;;5.72;4.00;;;12.00;99.90;;;;;;4996912;28;20022;-72
2023/04/23 03:40:18;;;;;;;5.55;4.22;;;11.90;99.90;;;;;;4996318;28;20030;-70
2023/04/23 03:42:44;;;;;;;7.90;4.35;;;12.00;99.90;;;;;;4996204;28;20034;-71
2023/04/23 03:45:12;;;;;;;5.93;4.10;;;12.00;99.90;;;;;;4994923;28;20029;-71
2023/04/23 03:47:38;;;;;;;5.13;4.28;;;12.00;99.90;;;;;;4996083;28;20416;-71
2023/04/23 03:50:04;;;;;;;6.20;4.32;;;12.00;99.90;;;;;;4996343;28;20058;-70
2023/04/23 03:52:30;;;;;;;4.70;4.20;;;12.00;99.90;;;;;;4995861;28;20094;-72
2023/04/23 03:54:55;;;;;;;7.13;4.53;;;12.10;99.90;;;;;;4995808;28;20524;-71
2023/04/23 03:57:21;;;;;;;6.35;4.40;;;12.00;99.90;;;;;;4996199;28;20038;-71
2023/04/23 03:59:46;;;;;;;5.78;4.70;;;12.00;99.90;;;;;;4995369;28;20418;-74
2023/04/23 04:02:12;;;;;;;7.50;4.60;;;11.90;99.90;;;;;;4995303;28;20129;-71
2023/04/23 04:04:37;;;;;;;5.47;4.28;;;11.90;99.90;;;;;;4995785;28;20047;-70
2023/04/23 04:07:04;;;;;;;5.63;4.75;;;12.00;99.90;;;;;;4995640;28;20035;-71
2023/04/23 04:09:30;;;;;;;5.10;4.13;;;11.90;99.90;;;;;;4995757;28;20026;-70
2023/04/23 04:11:55;;;;;;;6.95;4.75;;;11.90;99.90;;;;;;4995694;28;20038;-71
2023/04/23 04:14:21;;;;;;;4.82;4.25;;;11.90;99.90;;;;;;4995532;28;20026;-70
2023/04/23 04:16:47;;;;;;;7.72;4.57;;;11.90;99.90;;;;;;4995401;28;20494;-71
2023/04/23 04:19:13;;;;;;;6.30;4.72;;;11.90;99.90;;;;;;4995536;28;20030;-71
2023/04/23 04:21:38;;;;;;;5.72;4.32;;;11.90;99.90;;;;;;4995803;28;20027;-72
2023/04/23 04:24:04;;;;;;;5.72;4.63;;;11.80;99.90;;;;;;4996623;28;20416;-71
2023/04/23 04:26:36;;;;;;;5.72;4.82;;;11.80;99.90;;;;;;4995645;28;20037;-71
2023/04/23 04:29:02;;;;;;;5.07;4.05;;;11.80;99.90;;;;;;4995837;28;20461;-71
2023/04/23 04:31:28;;;;;;;5.88;4.43;;;11.80;99.90;;;;;;4994838;28;20065;-71
2023/04/23 04:33:54;;;;;;;4.85;4.32;;;11.80;99.90;;;;;;4995978;28;20097;-71
2023/04/23 04:36:20;;;;;;;8.05;4.20;;;11.70;99.90;;;;;;4995517;28;20027;-71
2023/04/23 04:38:46;;;;;;;5.97;4.70;;;11.70;99.90;;;;;;4995743;28;20027;-71
2023/04/23 04:41:12;;;;;;;5.00;4.32;;;11.70;99.90;;;;;;4996108;28;20065;-72
2023/04/23 04:43:39;;;;;;;7.05;4.47;;;11.70;99.90;;;;;;4995247;28;20026;-71
2023/04/23 04:46:04;;;;;;;5.68;4.70;;;11.60;99.90;;;;;;4995208;28;20034;-70
2023/04/23 04:48:30;;;;;;;5.72;4.07;;;11.70;99.90;;;;;;4995809;28;20035;-71
2023/04/23 04:50:56;;;;;;;5.75;4.00;;;11.60;99.90;;;;;;4995901;28;20033;-71
2023/04/23 04:53:22;;;;;;;6.63;4.18;;;11.60;99.90;;;;;;4995581;28;20027;-72
2023/04/23 04:55:48;;;;;;;6.18;4.38;;;11.60;99.90;;;;;;4994002;28;20038;-70
2023/04/23 04:58:14;;;;;;;5.60;5.00;;;11.60;99.90;;;;;;4999164;28;20101;-71
2023/04/23 05:00:39;;;;;;;5.00;4.13;;;11.60;99.90;;;;;;4998842;28;20499;-71
2023/04/23 05:03:05;;;;;;;6.72;4.57;;;11.60;99.90;;;;;;4999137;28;20030;-70
2023/04/23 05:05:33;;;;;;;6.85;4.43;;;11.70;99.90;;;;;;4999457;28;20061;-70
2023/04/23 05:08:00;;;;;;;6.30;4.80;;;11.60;99.90;;;;;;4999393;28;20030;-71
2023/04/23 05:10:32;;;;;;;7.63;4.32;;;11.60;99.90;;;;;;5001285;28;20042;-71
2023/04/23 05:12:59;;;;;;;6.28;4.70;;;11.60;99.90;;;;;;5001576;28;20390;-70
2023/04/23 05:15:25;;;;;;;8.43;4.38;;;11.60;99.90;;;;;;4999479;28;20026;-71
2023/04/23 05:17:52;;;;;;;6.80;4.78;;;11.70;99.90;;;;;;4999461;28;20065;-71
2023/04/23 05:20:18;;;;;;;5.55;4.28;;;11.70;99.90;;;;;;4999334;28;20034;-71
2023/04/23 05:22:44;;;;;;;5.68;4.38;;;11.70;99.90;;;;;;4999070;28;20410;-71
2023/04/23 05:25:11;;;;;;;9.63;5.43;;;11.70;99.90;;;;;;4999008;28;20026;-71
2023/04/23 05:27:36;;;;;;;6.10;4.82;;;11.70;99.90;;;;;;4999389;28;20078;-71
2023/04/23 05:30:04;;;;;;;5.72;5.00;;;11.70;99.90;;;;;;4999034;28;20467;-71
2023/04/23 05:32:30;;;;;;;5.00;4.22;;;11.70;99.90;;;;;;4998379;28;20035;-71
2023/04/23 05:34:56;;;;;;;5.97;5.05;;;11.70;99.90;;;;;;4999346;28;20053;-71
2023/04/23 05:37:21;;;;;;;8.55;5.15;;;11.70;99.90;;;;;;4998849;28;20034;-72
2023/04/23 05:39:47;;;;;;;6.43;4.80;;;11.70;99.90;;;;;;4999274;28;20422;-70
2023/04/23 05:42:12;;;;;;;7.95;5.47;;;11.70;99.90;;;;;;4998966;28;20031;-70
2023/04/23 05:44:40;;;;;;;6.00;5.28;;;11.80;99.90;;;;;;4996940;28;20062;-70
2023/04/23 05:47:06;;;;;;;5.25;4.60;;;11.80;99.90;;;;;;4996993;28;20038;-70
2023/04/23 05:49:32;;;;;;;5.85;3.95;;;11.80;99.90;;;;;;4998549;28;20046;-71
2023/04/23 05:51:58;;;;;;;6.15;4.53;;;11.80;99.90;;;;;;4998212;28;20034;-74
2023/04/23 05:54:23;;;;;;;8.85;4.75;;;11.80;99.90;;;;;;4998327;28;20426;-71
2023/04/23 05:56:49;;;;;;;6.57;4.70;;;11.80;99.90;;;;;;4998918;28;20109;-70
2023/04/23 05:59:15;;;;;;;6.80;4.57;;;11.80;99.90;;;;;;4998058;28;20034;-70
2023/04/23 06:01:41;;;;;;;4.72;4.03;;;11.70;99.90;;;;;;4996705;28;20125;-71
2023/04/23 06:04:06;;;;;;;6.93;4.40;;;11.80;99.90;;;;;;4998629;28;20037;-71
2023/04/23 06:06:32;;;;;;;5.95;4.15;;;11.80;99.90;;;;;;4998581;28;20030;-71
2023/04/23 06:08:58;;;;;;;4.72;4.07;;;11.80;99.90;;;;;;4997812;28;20479;-71
2023/04/23 06:11:23;;;;;;;5.88;4.20;;;11.80;99.90;;;;;;4998211;28;20038;-71
2023/04/23 06:13:49;;;;;;;3.92;3.50;;;11.90;99.90;;;;;;4998788;28;20034;-73
2023/04/23 06:16:15;;;;;;;5.20;3.90;;;11.90;99.90;;;;;;4998339;28;20375;-72
2023/04/23 06:18:40;;;;;;;5.53;3.92;;;11.90;99.90;;;;;;4998013;28;20066;-70
2023/04/23 06:21:06;;;;;;;4.88;3.90;;;11.90;99.90;;;;;;4998501;28;20034;-70
2023/04/23 06:23:33;;;;;;;6.53;4.22;;;11.90;99.90;;;;;;4998207;28;20058;-71
2023/04/23 06:25:59;;;;;;;8.27;4.55;;;11.90;99.90;;;;;;4998413;28;20030;-70
2023/04/23 06:28:25;;;;;;;5.90;4.30;;;12.00;99.90;;;;;;4997832;28;20034;-71
2023/04/23 06:30:51;;;;;;;6.07;3.85;;;12.00;99.90;;;;;;4997699;28;20030;-71
2023/04/23 06:33:17;;;;;;;4.82;3.90;;;12.00;99.90;;;;;;4998021;28;20117;-71
2023/04/23 06:35:42;;;;;;;4.70;3.50;;;12.10;99.90;;;;;;4997270;28;20073;-71
2023/04/23 06:38:08;;;;;;;4.93;3.45;;;12.10;99.90;;;;;;4997375;28;20037;-71
2023/04/23 06:40:34;;;;;;;5.32;3.45;;;12.10;99.90;;;;;;4998064;28;20030;-71
2023/04/23 06:43:03;;;;;;;4.53;3.22;;;12.10;99.90;;;;;;4998030;28;20462;-74
2023/04/23 06:45:30;;;;;;;4.28;3.00;;;12.10;99.90;;;;;;4997639;28;20118;-74
2023/04/23 06:47:56;;;;;;;4.03;2.97;;;12.10;99.90;;;;;;4997185;28;20022;-70
2023/04/23 06:50:22;;;;;;;3.35;2.78;;;12.10;99.90;;;;;;4997321;28;20105;-70
2023/04/23 06:52:48;;;;;;;4.03;2.88;;;12.10;99.90;;;;;;4997447;28;20034;-70
2023/04/23 06:55:13;;;;;;;3.90;2.72;;;12.20;99.90;;;;;;4997512;28;20527;-71
2023/04/23 06:57:39;;;;;;;3.95;2.58;;;12.20;99.90;;;;;;4997313;28;20022;-71
2023/04/23 07:00:07;;;;;;;4.30;2.97;;;12.20;99.90;;;;;;4997657;28;20085;-70
2023/04/23 07:02:33;;;;;;;3.55;2.80;;;12.20;99.90;;;;;;4996570;28;20494;-70
2023/04/23 07:04:59;;;;;;;3.47;2.70;;;12.20;99.90;;;;;;4996912;28;20034;-71
2023/04/23 07:07:25;;;;;;;3.20;2.65;;;12.20;99.90;;;;;;4997031;28;20038;-70
2023/04/23 07:09:50;;;;;;;2.85;2.55;;;12.30;99.90;;;;;;4997211;28;20034;-71
2023/04/23 07:12:16;;;;;;;4.00;2.50;;;12.20;99.90;;;;;;4997355;28;20034;-71
2023/04/23 07:14:42;;;;;;;2.92;2.50;;;12.30;99.90;;;;;;4996513;28;20085;-70
2023/04/23 07:17:09;;;;;;;3.20;2.55;;;12.30;99.90;;;;;;4996985;28;20488;-70
2023/04/23 07:19:35;;;;;;;2.70;2.47;;;12.40;99.90;;;;;;4996197;28;20471;-71
2023/04/23 07:22:00;;;;;;;2.40;2.20;;;12.40;99.90;;;;;;4996677;28;20077;-71
2023/04/23 07:24:26;;;;;;;3.58;2.28;;;12.40;99.90;;;;;;4996957;28;20455;-71
2023/04/23 07:26:52;;;;;;;4.20;2.75;;;12.40;99.90;;;;;;4996954;28;20058;-70
2023/04/23 07:29:17;;;;;;;3.75;2.70;;;12.40;99.90;;;;;;4996496;28;20109;-71
2023/04/23 07:31:43;;;;;;;4.18;2.72;;;12.40;99.90;;;;;;4996095;28;20061;-71
2023/04/23 07:34:09;;;;;;;3.67;2.83;;;12.40;99.90;;;;;;4996645;28;20033;-71
2023/04/23 07:36:35;;;;;;;4.45;2.80;;;12.50;99.90;;;;;;4997298;28;20495;-70
2023/04/23 07:39:01;;;;;;;4.40;2.45;;;12.60;99.90;;;;;;4995035;28;20034;-70
2023/04/23 07:41:26;;;;;;;4.63;3.22;;;12.60;99.90;;;;;;4996863;28;20387;-70
2023/04/23 07:43:52;;;;;;;5.63;3.20;;;12.70;99.90;;;;;;4996413;28;20101;-70
2023/04/23 07:46:18;;;;;;;9.55;6.55;;;12.80;99.90;;;;;;4996777;28;20034;-70
2023/04/23 07:48:44;;;;;;;18.90;10.55;;;12.80;99.90;;;;;;4995981;28;20073;-70
2023/04/23 07:51:10;;;;;;;7.35;5.25;;;12.90;99.90;;;;;;4996113;28;20093;-70
2023/04/23 07:53:35;;;;;;;9.70;6.60;;;13.00;99.90;;;;;;4996633;28;20022;-71
2023/04/23 07:56:01;;;;;;;4.78;3.92;;;13.00;99.90;;;;;;4995592;28;20041;-71
2023/04/23 07:58:26;;;;;;;4.82;3.80;;;13.10;99.90;;;;;;4995817;28;20042;-70
2023/04/23 08:00:52;;;;;;;4.57;3.30;;;13.10;99.90;;;;;;4995344;28;20483;-71
2023/04/23 08:03:18;;;;;;;3.70;3.22;;;13.10;99.90;;;;;;4996264;28;20034;-72
2023/04/23 08:05:44;;;;;;;3.55;2.92;;;13.20;99.90;;;;;;4994960;28;20038;-71
2023/04/23 08:08:10;;;;;;;5.32;2.90;;;13.30;99.90;;;;;;4995275;28;20028;-70
2023/04/23 08:10:36;;;;;;;3.60;3.28;;;13.40;99.90;;;;;;4995900;28;20030;-70
2023/04/23 08:13:02;;;;;;;4.70;3.20;;;13.40;99.90;;;;;;4995722;28;20030;-71
2023/04/23 08:15:28;;;;;;;6.90;4.00;;;13.50;99.90;;;;;;4996504;28;20034;-71
2023/04/23 08:17:53;;;;;;;5.75;3.45;;;13.60;99.90;;;;;;4995603;28;20034;-70
2023/04/23 08:20:19;;;;;;;4.43;3.10;;;13.60;99.90;;;;;;4995958;28;20038;-71
2023/04/23 08:22:45;;;;;;;3.22;2.92;;;13.50;99.90;;;;;;4996058;28;20066;-71
2023/04/23 08:25:12;;;;;;;4.88;3.28;;;13.50;99.90;;;;;;4996356;28;20026;-71
2023/04/23 08:27:37;;;;;;;4.43;2.90;;;13.50;99.90;;;;;;4995922;28;20467;-71
2023/04/23 08:30:04;;;;;;;3.30;2.65;;;13.60;99.90;;;;;;4994405;28;20036;-74
2023/04/23 08:32:29;;;;;;;4.03;2.97;;;13.60;99.90;;;;;;4998986;28;20038;-71
2023/04/23 08:34:55;;;;;;;5.93;3.33;;;13.80;99.90;;;;;;5000186;28;20192;-71
2023/04/23 08:37:21;;;;;;;4.40;2.97;;;14.00;99.90;;;;;;5000253;28;20035;-70
2023/04/23 08:39:46;;;;;;;3.97;3.35;;;14.20;99.90;;;;;;5000060;28;20034;-71
2023/04/23 08:42:31;;;;;;;4.65;2.85;;;14.10;99.90;;;;;;4999529;28;20022;-70
2023/04/23 08:44:57;;;;;;;2.63;2.28;;;14.10;99.90;;;;;;5000007;28;20037;-70
2023/04/23 08:47:24;;;;;;;3.65;2.78;;;14.40;99.90;;;;;;4999738;28;20022;-71
2023/04/23 08:49:53;;;;;;;2.95;2.58;;;14.60;99.90;;;;;;5000266;28;20023;-70
2023/04/23 08:52:23;;;;;;;3.28;2.50;;;14.80;99.90;;;;;;4999981;28;20042;-70
2023/04/23 08:54:52;;;;;;;5.35;4.30;;;14.70;99.90;;;;;;4999600;28;20125;-71
2023/04/23 08:57:18;;;;;;;3.05;2.20;;;14.90;99.90;;;;;;4999754;28;20022;-71
2023/04/23 08:59:45;;;;;;;2.40;2.20;;;15.00;99.90;;;;;;4998684;28;20042;-71
2023/04/23 09:02:11;;;;;;;2.22;1.90;;;14.90;99.90;;;;;;4999516;28;20069;-70
2023/04/23 09:04:37;;;;;;;1.98;1.80;;;15.10;99.90;;;;;;4999635;28;20041;-70
2023/04/23 09:07:03;;;;;;;1.90;1.80;;;14.80;99.90;;;;;;4999644;28;20027;-71
2023/04/23 09:09:29;;;;;;;2.25;1.67;;;14.80;99.90;;;;;;4999646;28;20336;-70
2023/04/23 09:11:56;;;;;;;1.73;1.60;;;14.90;99.90;;;;;;4998832;28;20042;-70
2023/04/23 09:14:26;;;;;;;2.22;1.67;;;14.80;99.90;;;;;;4999467;28;20031;-70
2023/04/23 09:16:52;;;;;;;2.00;1.90;;;15.00;99.90;;;;;;4998902;28;20038;-71
2023/04/23 09:19:18;;;;;;;1.95;1.85;;;15.20;99.90;;;;;;4999254;28;20038;-70
2023/04/23 09:21:45;;;;;;;2.85;2.00;;;15.30;99.90;;;;;;4999130;28;20039;-70
2023/04/23 09:24:11;;;;;;;2.80;1.70;;;15.50;99.90;;;;;;4999209;28;20479;-70
2023/04/23 09:26:45;;;;;;;3.50;2.20;;;15.60;99.90;;;;;;4999303;28;20030;-70
2023/04/23 09:29:22;;;;;;;3.30;2.15;;;15.60;99.90;;;;;;4999515;28;20041;-71
2023/04/23 09:31:55;;;;;;;3.40;2.00;;;15.60;99.90;;;;;;4998463;28;20058;-70
2023/04/23 09:34:22;;;;;;;2.28;1.83;;;15.50;99.90;;;;;;4998972;28;20030;-70
2023/04/23 09:36:50;;;;;;;3.75;2.00;;;15.30;99.90;;;;;;4998881;28;20034;-71
2023/04/23 09:39:17;;;;;;;2.05;1.80;;;15.20;99.90;;;;;;4998046;28;20041;-70
2023/04/23 09:41:47;;;;;;;3.28;2.10;;;15.00;99.90;;;;;;4998392;28;20034;-71
2023/04/23 09:44:23;;;;;;;3.17;1.90;;;15.00;99.90;;;;;;4997930;28;20364;-70
2023/04/23 09:46:49;;;;;;;2.20;2.00;;;15.10;99.90;;;;;;4998130;28;20475;-70
2023/04/23 09:49:15;;;;;;;1.60;1.50;;;15.20;99.90;;;;;;4998769;28;20445;-70
2023/04/23 09:51:46;;;;;;;1.58;1.48;;;15.30;99.90;;;;;;4997816;28;20069;-75
2023/04/23 09:54:17;;;;;;;2.72;1.77;;;15.60;99.90;;;;;;4997402;28;20022;-70
2023/04/23 09:56:47;;;;;;;1.75;1.40;;;16.00;99.90;;;;;;4997719;28;20085;-71
2023/04/23 09:59:29;;;;;;;2.28;1.40;;;16.20;99.90;;;;;;4998537;28;20066;-70
2023/04/23 10:01:55;;;;;;;1.50;1.40;;;16.10;99.90;;;;;;4997283;28;20073;-76
2023/04/23 10:04:23;;;;;;;1.63;1.52;;;16.20;99.90;;;;;;4997453;28;20058;-71
2023/04/23 10:06:54;;;;;;;1.88;1.67;;;16.40;99.90;;;;;;4998275;28;20046;-71
2023/04/23 10:09:23;;;;;;;1.52;1.42;;;16.70;99.90;;;;;;4998516;28;20026;-71
2023/04/23 10:11:51;;;;;;;1.70;1.42;;;17.00;99.90;;;;;;4998472;28;20188;-70
2023/04/23 10:14:19;;;;;;;1.25;1.17;;;17.00;99.90;;;;;;4998243;28;20018;-71
2023/04/23 10:16:46;;;;;;;1.43;1.33;;;16.80;99.90;;;;;;4998709;28;20036;-71
2023/04/23 10:19:16;;;;;;;2.17;1.40;;;17.10;99.90;;;;;;4997870;28;20297;-70
2023/04/23 10:21:45;;;;;;;1.40;1.30;;;17.10;99.90;;;;;;4997721;28;20399;-70
2023/04/23 10:24:12;;;;;;;1.48;1.38;;;16.80;99.90;;;;;;4997975;28;20061;-71
2023/04/23 10:26:41;;;;;;;2.15;1.65;;;16.70;99.90;;;;;;4998663;28;20037;-71
2023/04/23 10:29:12;;;;;;;2.63;1.38;;;16.50;99.90;;;;;;4997806;28;20030;-70
2023/04/23 10:31:38;;;;;;;1.40;1.20;;;16.60;99.90;;;;;;4997565;28;20093;-70
2023/04/23 10:34:05;;;;;;;1.45;1.35;;;16.50;99.90;;;;;;4997865;28;20471;-71
2023/04/23 10:36:32;;;;;;;1.67;1.38;;;16.50;99.90;;;;;;4997416;28;20117;-71
2023/04/23 10:39:02;;;;;;;1.38;1.35;;;16.60;99.90;;;;;;4997621;28;20038;-71
2023/04/23 10:41:37;;;;;;;1.15;1.10;;;16.80;99.90;;;;;;4980634;28;20042;-70
2023/04/23 10:44:04;;;;;;;1.30;1.20;;;17.10;99.90;;;;;;4997371;28;20073;-70
2023/04/23 10:46:31;;;;;;;1.20;1.10;;;17.10;99.90;;;;;;4997498;28;20471;-71
2023/04/23 10:49:07;;;;;;;2.25;1.20;;;17.00;99.90;;;;;;4997758;28;20387;-72
2023/04/23 10:51:36;;;;;;;1.27;1.17;;;17.00;99.90;;;;;;4996996;28;20030;-72
2023/04/23 10:54:03;;;;;;;1.23;1.10;;;17.10;99.90;;;;;;4996945;28;20528;-70
2023/04/23 10:56:29;;;;;;;2.92;1.30;;;17.20;99.90;;;;;;4997448;28;20038;-72
2023/04/23 10:58:55;;;;;;;1.60;0.98;;;17.10;99.90;;;;;;4997256;28;20034;-70
2023/04/23 11:01:24;;;;;;;1.00;1.00;;;16.90;99.90;;;;;;4996501;28;20045;-70
2023/04/23 11:03:50;;;;;;;2.85;1.00;;;16.80;99.90;;;;;;4997077;28;20026;-71
2023/04/23 11:06:48;;;;;;;1.25;1.15;;;16.60;99.90;;;;;;4996315;28;20038;-71
2023/04/23 11:09:37;;;;;;;1.75;1.40;;;16.90;99.90;;;;;;4997558;28;20061;-71
2023/04/23 11:12:06;;;;;;;2.50;0.90;;;17.20;99.90;;;;;;4997740;28;20026;-73
2023/04/23 11:14:44;;;;;;;1.13;1.02;;;17.00;99.90;;;;;;4997091;28;20137;-72
2023/04/23 11:17:20;;;;;;;0.95;0.90;;;16.70;99.00;;;;;;4996872;28;20028;-72
2023/04/23 11:20:15;;;;;;;1.15;1.10;;;16.60;99.90;;;;;;4997520;28;20073;-73
2023/04/23 11:22:46;;;;;;;1.20;1.20;;;17.10;99.90;;;;;;4998604;28;20375;-73
2023/04/23 11:25:15;;;;;;;1.27;1.17;;;17.40;99.90;;;;;;4998393;28;20030;-73
2023/04/23 11:27:44;;;;;;;1.40;1.30;;;17.40;99.90;;;;;;4998678;28;20033;-73
2023/04/23 11:30:14;;;;;;;1.23;1.13;;;17.70;99.90;;;;;;4999320;28;20022;-73
2023/04/23 11:32:43;;;;;;;1.25;1.15;;;17.40;99.90;;;;;;4997553;28;20101;-73
2023/04/23 11:35:09;;;;;;;1.40;1.30;;;17.20;97.40;;;;;;4998580;28;20061;-73
2023/04/23 11:37:40;;;;;;;2.13;1.40;;;17.20;99.90;;;;;;4999178;28;20077;-73
2023/04/23 11:40:11;;;;;;;1.30;1.20;;;17.10;99.90;;;;;;4999639;28;20041;-73
2023/04/23 11:42:42;;;;;;;1.38;1.27;;;17.20;99.90;;;;;;4999494;28;20027;-73
2023/04/23 11:45:14;;;;;;;1.58;1.10;;;17.20;99.90;;;;;;4999229;28;20038;-73
2023/04/23 11:47:40;;;;;;;1.73;1.17;;;17.10;99.90;;;;;;5001360;28;20026;-73
2023/04/23 11:50:06;;;;;;;1.02;1.02;;;16.90;99.90;;;;;;4999830;28;20133;-73
2023/04/23 11:52:32;;;;;;;1.63;1.48;;;17.00;99.90;;;;;;4999079;28;20375;-73
2023/04/23 11:55:02;;;;;;;2.08;1.98;;;16.90;99.90;;;;;;4998948;28;20031;-73
2023/04/23 11:57:28;;;;;;;2.65;1.40;;;16.90;99.90;;;;;;4998292;28;20042;-73
2023/04/23 11:59:54;;;;;;;1.33;1.23;;;17.10;99.90;;;;;;4998136;28;20369;-73
2023/04/23 12:02:23;;;;;;;2.83;1.80;;;17.50;99.90;;;;;;4998992;28;20066;-74
2023/04/23 12:04:49;;;;;;;1.45;1.35;;;18.00;99.90;;;;;;4997595;28;20030;-73
2023/04/23 12:07:15;;;;;;;4.00;1.73;;;17.70;96.00;;;;;;4998641;28;20033;-73
2023/04/23 12:09:40;;;;;;;2.55;1.27;;;17.90;99.40;;;;;;4998414;28;20034;-73
2023/04/23 12:12:06;;;;;;;1.70;1.50;;;17.70;97.70;;;;;;4998188;28;20088;-74
2023/04/23 12:14:32;;;;;;;11.38;7.47;;;17.50;99.70;;;;;;4997298;28;20026;-73
2023/04/23 12:17:08;;;;;;;2.20;1.35;;;17.60;99.90;;;;;;4998467;28;20026;-73
2023/04/23 12:19:34;;;;;;;1.60;1.50;;;17.80;98.40;;;;;;4997876;28;20031;-73
2023/04/23 12:22:01;;;;;;;2.60;1.42;;;17.90;99.90;;;;;;4999381;28;20340;-72
2023/04/23 12:24:44;;;;;;;1.27;1.20;;;17.70;99.90;;;;;;4998926;28;20046;-73
2023/04/23 12:27:14;;;;;;;1.40;1.30;;;17.70;99.90;;;;;;4997752;28;20113;-73
2023/04/23 12:29:40;;;;;;;1.83;1.25;;;17.80;97.40;;;;;;4997226;28;20034;-73
2023/04/23 12:32:10;;;;;;;1.30;1.20;;;18.10;98.80;;;;;;4996930;28;20042;-73
2023/04/23 12:34:35;;;;;;;1.50;1.30;;;17.90;99.60;;;;;;4998075;28;20045;-73
2023/04/23 12:37:05;;;;;;;1.73;1.30;;;17.80;98.80;;;;;;4998059;28;20455;-72
2023/04/23 12:39:33;;;;;;;1.60;1.45;;;17.60;99.90;;;;;;4997301;28;20034;-74
2023/04/23 12:42:03;;;;;;;1.40;1.30;;;17.50;99.10;;;;;;4998189;28;20041;-73
2023/04/23 12:44:30;;;;;;;1.80;1.40;;;17.90;99.90;;;;;;4999095;28;20034;-73
2023/04/23 12:47:06;;;;;;;1.40;1.30;;;18.30;99.90;;;;;;4998511;28;20454;-73